PWSweather.com
Personal Weather Stations
Station Observations
KWIATHEL1
Marinette County, Athelstane, WI 54104

Marinette CountyAthelstane, WI 54104

Lat: 45.4, Lon: -88.12

Elevation: 960

Station Type: OS WM-918

http://weather.athelstanewi.com

Latest ConditionsUpdated 1:01:41 PM CST Saturday, Feb 28, 2015
Currently Today's Max Today's Min Today's Average
Temperature 23.2°F-4.9°C 23.2°F-4.9°C -14.4°F-25.8°C -0.9°F-18.3°C
Dew Point 3.5°F-15.8°C 3.5°F-15.8°C -29.9°F-34.4°C -18.0°F-27.8°C
Winds 4.7 mph SW7.6 kmh SW 11.1 mph WSW17.9 kmh WSW - 2.1 mph 3.4 kmh
Wind Gusts 7.4 mph11.9 kmh 11.7 mph18.8 kmh - -
Humidity 42% 50% 42% 43%
Pressure 30.45 in1031.2 mb 30.54 in1034.2 mb 30.45 in1031.2 mb -
Hour Temp Dew Point Humidity Winds Wind Gusts Pressure Precip Precip Rate Daily Precip Total
01:01 PM 23.2°F-4.9°C 3.5°F-15.8°C 42% 4.7 mph SW7.6 kmh SW 7.4 mph11.9 kmh 30.45 in1031.2 mb 0.00 in0.0 mm 0.00 in/hr0.0 mm/hr 0.00 in0.0 mm
12:45 PM 22.8°F-5.1°C 3.2°F-16.0°C 42% 6.0 mph WSW9.7 kmh WSW 10.4 mph16.7 kmh 30.45 in1031.2 mb 0.00 in0.0 mm 0.00 in/hr0.0 mm/hr 0.00 in0.0 mm
12:30 PM 22.3°F-5.4°C 3.2°F-16.0°C 43% 4.7 mph SE7.6 kmh SE 6.7 mph10.8 kmh 30.48 in1032.2 mb 0.00 in0.0 mm 0.00 in/hr0.0 mm/hr 0.00 in0.0 mm
12:15 PM 21.6°F-5.8°C 3.0°F-16.1°C 44% 6.0 mph SW9.7 kmh SW 6.0 mph9.7 kmh 30.48 in1032.2 mb 0.00 in0.0 mm 0.00 in/hr0.0 mm/hr 0.00 in0.0 mm
12:02 PM 20.5°F-6.4°C 2.5°F-16.4°C 45% 6.0 mph SSW9.7 kmh SSW 8.7 mph14.0 kmh 30.48 in1032.2 mb 0.00 in0.0 mm 0.00 in/hr0.0 mm/hr 0.00 in0.0 mm
11:45 AM 18.9°F-7.3°C 1.5°F-16.9°C 46% Calm Calm 6.0 mph9.7 kmh 30.48 in1032.2 mb 0.00 in0.0 mm 0.00 in/hr0.0 mm/hr 0.00 in0.0 mm
11:30 AM 18.0°F-7.8°C 1.6°F-16.9°C 48% 4.0 mph SSW6.4 kmh SSW 6.7 mph10.8 kmh 30.51 in1033.2 mb 0.00 in0.0 mm 0.00 in/hr0.0 mm/hr 0.00 in0.0 mm
11:15 AM 17.4°F-8.1°C 1.1°F-17.2°C 48% 7.4 mph WSW11.9 kmh WSW 11.7 mph18.8 kmh 30.51 in1033.2 mb 0.00 in0.0 mm 0.00 in/hr0.0 mm/hr 0.00 in0.0 mm
11:01 AM 16.7°F-8.5°C 0.9°F-17.3°C 49% Calm Calm 6.7 mph10.8 kmh 30.51 in1033.2 mb 0.00 in0.0 mm 0.00 in/hr0.0 mm/hr 0.00 in0.0 mm
10:45 AM 15.3°F-9.3°C 0.0°F-17.8°C 50% 5.4 mph S8.7 kmh S 8.7 mph14.0 kmh 30.51 in1033.2 mb 0.00 in0.0 mm 0.00 in/hr0.0 mm/hr 0.00 in0.0 mm
10:30 AM 13.6°F-10.2°C -5.2°F-20.7°C 42% 10.4 mph W16.7 kmh W 10.4 mph16.7 kmh 30.51 in1033.2 mb 0.00 in0.0 mm 0.00 in/hr0.0 mm/hr 0.00 in0.0 mm
10:15 AM 12.6°F-10.8°C -6.2°F-21.2°C 42% 6.7 mph WSW10.8 kmh WSW 8.7 mph14.0 kmh 30.51 in1033.2 mb 0.00 in0.0 mm 0.00 in/hr0.0 mm/hr 0.00 in0.0 mm
10:01 AM 12.0°F-11.1°C -6.7°F-21.5°C 42% 5.4 mph WSW8.7 kmh WSW 5.4 mph8.7 kmh 30.51 in1033.2 mb 0.00 in0.0 mm 0.00 in/hr0.0 mm/hr 0.00 in0.0 mm
09:45 AM 12.0°F-11.1°C -6.7°F-21.5°C 42% Calm Calm -- 30.51 in1033.2 mb 0.00 in0.0 mm 0.00 in/hr0.0 mm/hr 0.00 in0.0 mm
09:30 AM 10.4°F-12.0°C -8.1°F-22.3°C 42% 5.4 mph WSW8.7 kmh WSW 6.7 mph10.8 kmh 30.51 in1033.2 mb 0.00 in0.0 mm 0.00 in/hr0.0 mm/hr 0.00 in0.0 mm
09:15 AM 8.8°F-12.9°C -9.6°F-23.1°C 42% 4.7 mph NW7.6 kmh NW 5.4 mph8.7 kmh 30.51 in1033.2 mb 0.00 in0.0 mm 0.00 in/hr0.0 mm/hr 0.00 in0.0 mm
09:02 AM 6.4°F-14.2°C -11.8°F-24.3°C 42% 7.4 mph W11.9 kmh W 8.7 mph14.0 kmh 30.54 in1034.2 mb 0.00 in0.0 mm 0.00 in/hr0.0 mm/hr 0.00 in0.0 mm
08:45 AM 4.5°F-15.3°C -13.6°F-25.3°C 42% Calm Calm 4.0 mph6.4 kmh 30.51 in1033.2 mb 0.00 in0.0 mm 0.00 in/hr0.0 mm/hr 0.00 in0.0 mm
08:30 AM 1.4°F-17.0°C -16.4°F-26.9°C 42% 11.1 mph WSW17.9 kmh WSW 11.1 mph17.9 kmh 30.54 in1034.2 mb 0.00 in0.0 mm 0.00 in/hr0.0 mm/hr 0.00 in0.0 mm
08:15 AM -4.0°F-20.0°C -21.3°F-29.6°C 42% 9.4 mph WSW15.1 kmh WSW 11.1 mph17.9 kmh 30.51 in1033.2 mb 0.00 in0.0 mm 0.00 in/hr0.0 mm/hr 0.00 in0.0 mm
08:01 AM -8.5°F-22.5°C -25.4°F-31.9°C 42% Calm Calm -- 30.51 in1033.2 mb 0.00 in0.0 mm 0.00 in/hr0.0 mm/hr 0.00 in0.0 mm
07:45 AM -11.9°F-24.4°C -28.6°F-33.7°C 42% Calm Calm -- 30.51 in1033.2 mb 0.00 in0.0 mm 0.00 in/hr0.0 mm/hr 0.00 in0.0 mm
07:30 AM -13.4°F-25.2°C -29.9°F-34.4°C 42% Calm Calm -- 30.51 in1033.2 mb 0.00 in0.0 mm 0.00 in/hr0.0 mm/hr 0.00 in0.0 mm
07:15 AM -14.1°F-25.6°C -29.9°F-34.4°C 42% Calm Calm -- 30.51 in1033.2 mb 0.00 in0.0 mm 0.00 in/hr0.0 mm/hr 0.00 in0.0 mm
07:00 AM -14.4°F-25.8°C -29.9°F-34.4°C 42% Calm Calm -- 30.51 in1033.2 mb 0.00 in0.0 mm 0.00 in/hr0.0 mm/hr 0.00 in0.0 mm
06:45 AM -14.4°F-25.8°C -29.9°F-34.4°C 42% Calm Calm -- 30.48 in1032.2 mb 0.00 in0.0 mm 0.00 in/hr0.0 mm/hr 0.00 in0.0 mm
06:30 AM -14.3°F-25.7°C -29.9°F-34.4°C 42% Calm Calm -- 30.51 in1033.2 mb 0.00 in0.0 mm 0.00 in/hr0.0 mm/hr 0.00 in0.0 mm
06:15 AM -13.9°F-25.5°C -29.9°F-34.4°C 42% Calm Calm -- 30.48 in1032.2 mb 0.00 in0.0 mm 0.00 in/hr0.0 mm/hr 0.00 in0.0 mm
06:00 AM -13.5°F-25.3°C -29.9°F-34.4°C 42% Calm Calm -- 30.48 in1032.2 mb 0.00 in0.0 mm 0.00 in/hr0.0 mm/hr 0.00 in0.0 mm
05:45 AM -13.0°F-25.0°C -29.5°F-34.2°C 42% Calm Calm -- 30.48 in1032.2 mb 0.00 in0.0 mm 0.00 in/hr0.0 mm/hr 0.00 in0.0 mm
05:30 AM -12.8°F-24.9°C -29.4°F-34.1°C 42% Calm Calm -- 30.48 in1032.2 mb 0.00 in0.0 mm 0.00 in/hr0.0 mm/hr 0.00 in0.0 mm
05:15 AM -12.8°F-24.9°C -29.4°F-34.1°C 42% Calm Calm -- 30.48 in1032.2 mb 0.00 in0.0 mm 0.00 in/hr0.0 mm/hr 0.00 in0.0 mm
05:00 AM -12.5°F-24.7°C -29.0°F-33.9°C 42% Calm Calm -- 30.48 in1032.2 mb 0.00 in0.0 mm 0.00 in/hr0.0 mm/hr 0.00 in0.0 mm
04:45 AM -12.1°F-24.5°C -28.7°F-33.7°C 42% Calm Calm -- 30.48 in1032.2 mb 0.00 in0.0 mm 0.00 in/hr0.0 mm/hr 0.00 in0.0 mm
04:30 AM -11.9°F-24.4°C -28.6°F-33.7°C 42% Calm Calm -- 30.48 in1032.2 mb 0.00 in0.0 mm 0.00 in/hr0.0 mm/hr 0.00 in0.0 mm
04:15 AM -11.4°F-24.1°C -28.1°F-33.4°C 42% Calm Calm -- 30.48 in1032.2 mb 0.00 in0.0 mm 0.00 in/hr0.0 mm/hr 0.00 in0.0 mm
04:00 AM -10.8°F-23.8°C -27.6°F-33.1°C 42% Calm Calm -- 30.48 in1032.2 mb 0.00 in0.0 mm 0.00 in/hr0.0 mm/hr 0.00 in0.0 mm
03:45 AM -10.3°F-23.5°C -27.1°F-32.8°C 42% Calm Calm -- 30.48 in1032.2 mb 0.00 in0.0 mm 0.00 in/hr0.0 mm/hr 0.00 in0.0 mm
03:30 AM -10.1°F-23.4°C -26.9°F-32.7°C 42% Calm Calm -- 30.45 in1031.2 mb 0.00 in0.0 mm 0.00 in/hr0.0 mm/hr 0.00 in0.0 mm
03:15 AM -9.8°F-23.2°C -26.6°F-32.6°C 42% Calm Calm -- 30.45 in1031.2 mb 0.00 in0.0 mm 0.00 in/hr0.0 mm/hr 0.00 in0.0 mm
03:00 AM -9.0°F-22.8°C -25.9°F-32.2°C 42% Calm Calm -- 30.48 in1032.2 mb 0.00 in0.0 mm 0.00 in/hr0.0 mm/hr 0.00 in0.0 mm
02:45 AM -8.3°F-22.4°C -25.3°F-31.8°C 42% Calm Calm -- 30.48 in1032.2 mb 0.00 in0.0 mm 0.00 in/hr0.0 mm/hr 0.00 in0.0 mm
02:30 AM -7.4°F-21.9°C -24.4°F-31.3°C 42% Calm Calm -- 30.48 in1032.2 mb 0.00 in0.0 mm 0.00 in/hr0.0 mm/hr 0.00 in0.0 mm
02:15 AM -7.1°F-21.7°C -24.1°F-31.2°C 42% Calm Calm -- 30.45 in1031.2 mb 0.00 in0.0 mm 0.00 in/hr0.0 mm/hr 0.00 in0.0 mm
02:00 AM -6.7°F-21.5°C -23.8°F-31.0°C 42% Calm Calm -- 30.45 in1031.2 mb 0.00 in0.0 mm 0.00 in/hr0.0 mm/hr 0.00 in0.0 mm
01:45 AM -6.2°F-21.2°C -23.3°F-30.7°C 42% Calm Calm -- 30.45 in1031.2 mb 0.00 in0.0 mm 0.00 in/hr0.0 mm/hr 0.00 in0.0 mm
01:30 AM -6.0°F-21.1°C -23.1°F-30.6°C 42% Calm Calm -- 30.45 in1031.2 mb 0.00 in0.0 mm 0.00 in/hr0.0 mm/hr 0.00 in0.0 mm
01:15 AM -6.0°F-21.1°C -23.1°F-30.6°C 42% Calm Calm -- 30.45 in1031.2 mb 0.00 in0.0 mm 0.00 in/hr0.0 mm/hr 0.00 in0.0 mm
01:00 AM -5.6°F-20.9°C -22.8°F-30.4°C 42% Calm Calm -- 30.45 in1031.2 mb 0.00 in0.0 mm 0.00 in/hr0.0 mm/hr 0.00 in0.0 mm
12:45 AM -5.3°F-20.7°C -22.4°F-30.2°C 42% Calm Calm -- 30.45 in1031.2 mb 0.00 in0.0 mm 0.00 in/hr0.0 mm/hr 0.00 in0.0 mm
12:15 AM -4.4°F-20.2°C -21.6°F-29.8°C 42% Calm Calm -- 30.45 in1031.2 mb 0.00 in0.0 mm 0.00 in/hr0.0 mm/hr 0.00 in0.0 mm